sensor_id;sensor_type;location;lat;lon;timestamp;pressure;altitude;pressure_sealevel;temperature;humidity
75409;BME280;63979;55.644;37.734;2023-02-28T00:02:55;100748.84;;;-6.19;74.08
75409;BME280;63979;55.644;37.734;2023-02-28T00:07:56;100729.47;;;-6.42;74.38
75409;BME280;63979;55.644;37.734;2023-02-28T00:13:03;100723.41;;;-6.43;74.10
75409;BME280;63979;55.644;37.734;2023-02-28T00:18:05;100720.00;;;-6.37;73.97
75409;BME280;63979;55.644;37.734;2023-02-28T00:23:06;100719.88;;;-6.46;73.95
75409;BME280;63979;55.644;37.734;2023-02-28T00:28:06;100726.75;;;-6.50;74.21
75409;BME280;63979;55.644;37.734;2023-02-28T00:33:07;100709.25;;;-6.62;74.13
75409;BME280;63979;55.644;37.734;2023-02-28T00:38:08;100712.69;;;-6.63;74.22
75409;BME280;63979;55.644;37.734;2023-02-28T00:43:19;100703.16;;;-6.65;74.45
75409;BME280;63979;55.644;37.734;2023-02-28T00:48:20;100710.91;;;-6.67;74.42
75409;BME280;63979;55.644;37.734;2023-02-28T00:53:21;100634.09;;;-7.13;73.79
75409;BME280;63979;55.644;37.734;2023-02-28T00:58:22;100671.81;;;-6.79;73.99
75409;BME280;63979;55.644;37.734;2023-02-28T01:03:23;100628.00;;;-7.16;74.24
75409;BME280;63979;55.644;37.734;2023-02-28T01:08:24;100685.47;;;-6.92;74.42
75409;BME280;63979;55.644;37.734;2023-02-28T01:13:26;100681.88;;;-6.99;74.38
75409;BME280;63979;55.644;37.734;2023-02-28T01:18:27;100668.88;;;-7.00;74.80
75409;BME280;63979;55.644;37.734;2023-02-28T01:23:28;100613.00;;;-7.34;74.67
75409;BME280;63979;55.644;37.734;2023-02-28T01:28:30;100621.78;;;-7.26;74.72
75409;BME280;63979;55.644;37.734;2023-02-28T01:33:31;100560.72;;;-7.62;75.11
75409;BME280;63979;55.644;37.734;2023-02-28T01:38:33;100629.44;;;-7.34;75.06
75409;BME280;63979;55.644;37.734;2023-02-28T01:48:46;100615.53;;;-7.37;75.19
75409;BME280;63979;55.644;37.734;2023-02-28T01:53:53;100569.19;;;-7.70;75.54
75409;BME280;63979;55.644;37.734;2023-02-28T01:58:55;100600.72;;;-7.46;75.79
75409;BME280;63979;55.644;37.734;2023-02-28T02:04:00;100592.91;;;-7.49;75.92
75409;BME280;63979;55.644;37.734;2023-02-28T02:09:02;100583.38;;;-7.50;75.26
75409;BME280;63979;55.644;37.734;2023-02-28T02:15:17;100580.69;;;-7.56;75.74
75409;BME280;63979;55.644;37.734;2023-02-28T02:35:56;100539.63;;;-7.83;76.57
75409;BME280;63979;55.644;37.734;2023-02-28T02:41:15;100472.75;;;-8.07;76.10
75409;BME280;63979;55.644;37.734;2023-02-28T02:46:21;100556.44;;;-7.60;76.08
75409;BME280;63979;55.644;37.734;2023-02-28T02:51:25;100527.69;;;-7.73;76.20
75409;BME280;63979;55.644;37.734;2023-02-28T02:56:29;100471.28;;;-7.93;75.94
75409;BME280;63979;55.644;37.734;2023-02-28T03:01:33;100520.03;;;-7.66;76.02
75409;BME280;63979;55.644;37.734;2023-02-28T03:06:35;100515.91;;;-7.55;76.25
75409;BME280;63979;55.644;37.734;2023-02-28T03:11:37;100515.03;;;-7.57;75.92
75409;BME280;63979;55.644;37.734;2023-02-28T03:27:23;100469.34;;;-7.48;76.19
75409;BME280;63979;55.644;37.734;2023-02-28T03:38:05;100452.97;;;-7.46;74.91
75409;BME280;63979;55.644;37.734;2023-02-28T03:43:13;100451.38;;;-7.35;75.29
75409;BME280;63979;55.644;37.734;2023-02-28T03:48:24;100432.31;;;-7.40;74.80
75409;BME280;63979;55.644;37.734;2023-02-28T04:03:43;100351.81;;;-7.52;74.20
75409;BME280;63979;55.644;37.734;2023-02-28T04:08:44;100396.19;;;-7.28;73.40
75409;BME280;63979;55.644;37.734;2023-02-28T04:13:45;100396.22;;;-7.26;73.45
75409;BME280;63979;55.644;37.734;2023-02-28T04:18:46;100383.25;;;-7.25;72.99
75409;BME280;63979;55.644;37.734;2023-02-28T04:23:47;100366.88;;;-7.22;72.39
75409;BME280;63979;55.644;37.734;2023-02-28T04:28:48;100332.03;;;-7.42;73.04
75409;BME280;63979;55.644;37.734;2023-02-28T04:33:49;100371.31;;;-7.10;71.64
75409;BME280;63979;55.644;37.734;2023-02-28T04:38:50;100384.34;;;-7.04;71.75
75409;BME280;63979;55.644;37.734;2023-02-28T04:43:52;100355.00;;;-6.97;71.38
75409;BME280;63979;55.644;37.734;2023-02-28T04:48:53;100290.13;;;-7.00;70.54
75409;BME280;63979;55.644;37.734;2023-02-28T04:53:55;100329.09;;;-5.89;67.22
75409;BME280;63979;55.644;37.734;2023-02-28T04:58:56;100322.53;;;-4.70;62.96
75409;BME280;63979;55.644;37.734;2023-02-28T05:03:59;100296.44;;;-4.01;60.17
75409;BME280;63979;55.644;37.734;2023-02-28T05:09:00;100288.34;;;-3.27;56.86
75409;BME280;63979;55.644;37.734;2023-02-28T05:14:03;100294.22;;;-2.90;55.28
75409;BME280;63979;55.644;37.734;2023-02-28T05:19:04;100272.69;;;-3.25;55.17
75409;BME280;63979;55.644;37.734;2023-02-28T05:24:11;100265.06;;;-2.35;52.88
75409;BME280;63979;55.644;37.734;2023-02-28T05:29:12;100232.75;;;-1.52;50.42
75409;BME280;63979;55.644;37.734;2023-02-28T05:34:13;100242.03;;;-0.70;47.52
75409;BME280;63979;55.644;37.734;2023-02-28T05:39:16;100208.22;;;-0.33;45.40
75409;BME280;63979;55.644;37.734;2023-02-28T05:44:16;100218.19;;;0.38;44.71
75409;BME280;63979;55.644;37.734;2023-02-28T05:49:17;100197.38;;;0.70;43.62
75409;BME280;63979;55.644;37.734;2023-02-28T05:54:18;100196.94;;;0.88;42.60
75409;BME280;63979;55.644;37.734;2023-02-28T05:59:19;100182.47;;;1.43;41.30
75409;BME280;63979;55.644;37.734;2023-02-28T06:04:20;100184.44;;;0.98;40.78
75409;BME280;63979;55.644;37.734;2023-02-28T06:09:21;100169.09;;;1.83;39.51
75409;BME280;63979;55.644;37.734;2023-02-28T06:14:22;100150.63;;;3.01;37.49
75409;BME280;63979;55.644;37.734;2023-02-28T06:19:23;100133.91;;;3.79;35.52
75409;BME280;63979;55.644;37.734;2023-02-28T06:24:26;100085.75;;;2.13;36.74
75409;BME280;63979;55.644;37.734;2023-02-28T06:29:28;100120.88;;;1.83;38.55
75409;BME280;63979;55.644;37.734;2023-02-28T06:34:29;100112.41;;;2.60;37.11
75409;BME280;63979;55.644;37.734;2023-02-28T06:39:31;100110.50;;;2.65;36.68
75409;BME280;63979;55.644;37.734;2023-02-28T06:44:32;100086.56;;;1.86;38.14
75409;BME280;63979;55.644;37.734;2023-02-28T06:49:36;100098.44;;;1.37;39.63
75409;BME280;63979;55.644;37.734;2023-02-28T06:54:37;100079.13;;;-0.06;42.26
75409;BME280;63979;55.644;37.734;2023-02-28T06:59:38;100015.91;;;-1.23;45.30
75409;BME280;63979;55.644;37.734;2023-02-28T07:04:38;100053.91;;;-0.99;47.15
75409;BME280;63979;55.644;37.734;2023-02-28T07:09:41;100034.88;;;-1.63;48.17
75409;BME280;63979;55.644;37.734;2023-02-28T07:14:41;100030.75;;;-1.79;49.91
75409;BME280;63979;55.644;37.734;2023-02-28T07:19:42;100013.78;;;-1.52;49.43
75409;BME280;63979;55.644;37.734;2023-02-28T07:24:43;100006.38;;;-1.81;50.31
75409;BME280;63979;55.644;37.734;2023-02-28T07:29:44;99983.38;;;-1.61;50.03
75409;BME280;63979;55.644;37.734;2023-02-28T07:34:45;99946.84;;;-1.65;51.42
75409;BME280;63979;55.644;37.734;2023-02-28T07:39:46;99964.75;;;-1.42;52.05
75409;BME280;63979;55.644;37.734;2023-02-28T07:44:47;99965.69;;;-1.46;52.47
75409;BME280;63979;55.644;37.734;2023-02-28T07:49:48;99919.53;;;-1.50;52.92
75409;BME280;63979;55.644;37.734;2023-02-28T07:54:49;99936.13;;;-1.04;53.31
75409;BME280;63979;55.644;37.734;2023-02-28T07:59:50;99937.88;;;-1.06;52.91
75409;BME280;63979;55.644;37.734;2023-02-28T08:04:51;99931.78;;;-0.63;52.52
75409;BME280;63979;55.644;37.734;2023-02-28T08:09:52;99920.97;;;0.59;49.12
75409;BME280;63979;55.644;37.734;2023-02-28T08:14:53;99928.63;;;0.99;47.48
75409;BME280;63979;55.644;37.734;2023-02-28T08:19:54;99925.78;;;0.76;47.87
75409;BME280;63979;55.644;37.734;2023-02-28T08:24:55;99902.31;;;0.70;48.58
75409;BME280;63979;55.644;37.734;2023-02-28T08:29:56;99887.00;;;0.19;50.34
75409;BME280;63979;55.644;37.734;2023-02-28T08:34:57;99820.47;;;-0.48;50.86
75409;BME280;63979;55.644;37.734;2023-02-28T08:39:58;99845.84;;;-0.50;52.52
75409;BME280;63979;55.644;37.734;2023-02-28T08:44:59;99796.00;;;-0.13;52.58
75409;BME280;63979;55.644;37.734;2023-02-28T08:50:00;99823.72;;;1.21;49.11
75409;BME280;63979;55.644;37.734;2023-02-28T08:55:01;99896.50;;;1.19;49.69
75409;BME280;63979;55.644;37.734;2023-02-28T09:00:02;99883.97;;;0.36;51.64
75409;BME280;63979;55.644;37.734;2023-02-28T09:05:05;99887.50;;;-0.38;54.55
75409;BME280;63979;55.644;37.734;2023-02-28T09:10:06;99879.75;;;-0.81;56.27
75409;BME280;63979;55.644;37.734;2023-02-28T09:15:07;99872.44;;;-1.09;57.82
75409;BME280;63979;55.644;37.734;2023-02-28T09:20:10;99842.44;;;-1.34;58.81
75409;BME280;63979;55.644;37.734;2023-02-28T09:25:11;99758.75;;;-1.82;59.19
75409;BME280;63979;55.644;37.734;2023-02-28T09:30:12;99747.28;;;-1.75;59.76
75409;BME280;63979;55.644;37.734;2023-02-28T09:35:13;99814.53;;;-1.35;59.75
75409;BME280;63979;55.644;37.734;2023-02-28T09:40:18;99796.44;;;-1.06;59.70
75409;BME280;63979;55.644;37.734;2023-02-28T09:50:40;99816.78;;;-0.78;60.22
75409;BME280;63979;55.644;37.734;2023-02-28T09:55:55;99759.66;;;-1.00;59.82
75409;BME280;63979;55.644;37.734;2023-02-28T10:01:03;99769.91;;;-0.90;61.00
75409;BME280;63979;55.644;37.734;2023-02-28T10:06:19;99772.50;;;-0.52;60.29
75409;BME280;63979;55.644;37.734;2023-02-28T10:11:21;99775.34;;;-0.61;60.11
75409;BME280;63979;55.644;37.734;2023-02-28T10:21:30;99762.78;;;-0.48;59.91
75409;BME280;63979;55.644;37.734;2023-02-28T10:26:32;99738.72;;;-0.64;60.91
75409;BME280;63979;55.644;37.734;2023-02-28T10:31:33;99742.44;;;-0.74;61.34
75409;BME280;63979;55.644;37.734;2023-02-28T10:36:34;99724.47;;;-0.54;60.94
75409;BME280;63979;55.644;37.734;2023-02-28T10:41:42;99718.09;;;-0.44;59.98
75409;BME280;63979;55.644;37.734;2023-02-28T10:46:43;99725.13;;;-0.80;60.50
75409;BME280;63979;55.644;37.734;2023-02-28T10:51:44;99722.75;;;-0.90;61.61
75409;BME280;63979;55.644;37.734;2023-02-28T10:57:05;99726.28;;;-0.91;61.88
75409;BME280;63979;55.644;37.734;2023-02-28T11:02:43;99696.41;;;-0.84;62.15
75409;BME280;63979;55.644;37.734;2023-02-28T11:07:51;99698.84;;;-0.77;61.78
75409;BME280;63979;55.644;37.734;2023-02-28T11:12:55;99672.00;;;-0.86;62.19
75409;BME280;63979;55.644;37.734;2023-02-28T11:18:14;99686.63;;;-0.78;62.53
75409;BME280;63979;55.644;37.734;2023-02-28T11:23:20;99609.38;;;-1.31;63.77
75409;BME280;63979;55.644;37.734;2023-02-28T11:28:36;99683.06;;;-0.75;63.05
75409;BME280;63979;55.644;37.734;2023-02-28T11:38:45;99676.66;;;-0.62;63.89
75409;BME280;63979;55.644;37.734;2023-02-28T11:44:28;99673.50;;;-0.76;64.27
75409;BME280;63979;55.644;37.734;2023-02-28T12:10:26;99642.88;;;-0.74;64.81
75409;BME280;63979;55.644;37.734;2023-02-28T12:15:41;99637.38;;;-0.98;65.86
75409;BME280;63979;55.644;37.734;2023-02-28T12:21:30;99631.31;;;-1.00;68.29
75409;BME280;63979;55.644;37.734;2023-02-28T12:31:38;99628.06;;;-1.11;69.30
75409;BME280;63979;55.644;37.734;2023-02-28T12:36:43;99620.25;;;-1.12;69.62
75409;BME280;63979;55.644;37.734;2023-02-28T12:42:00;99612.41;;;-1.12;70.15
75409;BME280;63979;55.644;37.734;2023-02-28T12:47:05;99595.28;;;-1.26;70.83
75409;BME280;63979;55.644;37.734;2023-02-28T12:52:11;99546.03;;;-1.45;71.18
75409;BME280;63979;55.644;37.734;2023-02-28T13:02:41;99583.78;;;-1.20;72.75
75409;BME280;63979;55.644;37.734;2023-02-28T13:08:46;99569.31;;;-1.33;73.07
75409;BME280;63979;55.644;37.734;2023-02-28T13:13:30;99531.66;;;-1.29;72.63
75409;BME280;63979;55.644;37.734;2023-02-28T13:18:44;99539.16;;;-1.15;72.10
75409;BME280;63979;55.644;37.734;2023-02-28T13:29:01;99522.03;;;-1.27;71.76
75409;BME280;63979;55.644;37.734;2023-02-28T13:34:14;99539.31;;;-1.21;71.09
75409;BME280;63979;55.644;37.734;2023-02-28T14:06:28;99495.47;;;-1.13;71.76
75409;BME280;63979;55.644;37.734;2023-02-28T14:11:36;99460.09;;;-1.28;72.32
75409;BME280;63979;55.644;37.734;2023-02-28T14:16:44;99492.41;;;-0.97;72.38
75409;BME280;63979;55.644;37.734;2023-02-28T14:33:11;99471.47;;;-0.38;70.74
75409;BME280;63979;55.644;37.734;2023-02-28T14:38:23;99438.34;;;-0.70;71.68
75409;BME280;63979;55.644;37.734;2023-02-28T14:43:27;99448.41;;;-0.54;72.29
75409;BME280;63979;55.644;37.734;2023-02-28T14:48:29;99456.59;;;-0.65;73.11
75409;BME280;63979;55.644;37.734;2023-02-28T14:53:36;99430.53;;;-0.71;73.81
75409;BME280;63979;55.644;37.734;2023-02-28T14:58:37;99432.53;;;-0.79;74.95
75409;BME280;63979;55.644;37.734;2023-02-28T15:03:39;99433.66;;;-0.88;75.29
75409;BME280;63979;55.644;37.734;2023-02-28T15:08:43;99420.06;;;-0.71;75.17
75409;BME280;63979;55.644;37.734;2023-02-28T15:13:50;99424.38;;;-0.69;74.95
75409;BME280;63979;55.644;37.734;2023-02-28T15:18:59;99428.91;;;-0.46;74.59
75409;BME280;63979;55.644;37.734;2023-02-28T15:24:08;99416.47;;;-0.39;74.16
75409;BME280;63979;55.644;37.734;2023-02-28T15:29:17;99408.09;;;-0.50;73.28
75409;BME280;63979;55.644;37.734;2023-02-28T15:34:38;99425.19;;;-0.39;73.81
75409;BME280;63979;55.644;37.734;2023-02-28T15:39:43;99410.72;;;-0.22;73.48
75409;BME280;63979;55.644;37.734;2023-02-28T15:44:45;99416.06;;;-0.25;72.77
75409;BME280;63979;55.644;37.734;2023-02-28T15:54:52;99395.28;;;-0.05;72.96
75409;BME280;63979;55.644;37.734;2023-02-28T15:59:56;99393.41;;;0.00;72.97
75409;BME280;63979;55.644;37.734;2023-02-28T16:10:24;99386.97;;;0.09;72.20
75409;BME280;63979;55.644;37.734;2023-02-28T16:15:28;99351.84;;;-0.14;72.83
75409;BME280;63979;55.644;37.734;2023-02-28T16:20:31;99382.38;;;0.15;72.90
75409;BME280;63979;55.644;37.734;2023-02-28T16:25:38;99383.41;;;0.11;73.45
75409;BME280;63979;55.644;37.734;2023-02-28T16:30:40;99361.97;;;0.23;72.72
75409;BME280;63979;55.644;37.734;2023-02-28T16:35:41;99374.25;;;0.23;73.46
75409;BME280;63979;55.644;37.734;2023-02-28T16:40:42;99378.59;;;0.24;72.94
75409;BME280;63979;55.644;37.734;2023-02-28T16:45:43;99385.34;;;0.31;72.47
75409;BME280;63979;55.644;37.734;2023-02-28T16:50:44;99359.66;;;0.41;72.36
75409;BME280;63979;55.644;37.734;2023-02-28T16:55:45;99329.78;;;0.18;72.32
75409;BME280;63979;55.644;37.734;2023-02-28T17:00:47;99354.84;;;0.27;74.22
75409;BME280;63979;55.644;37.734;2023-02-28T17:05:49;99352.78;;;0.37;75.21
75409;BME280;63979;55.644;37.734;2023-02-28T17:10:50;99331.47;;;0.46;75.18
75409;BME280;63979;55.644;37.734;2023-02-28T17:15:51;99336.44;;;0.53;74.37
75409;BME280;63979;55.644;37.734;2023-02-28T17:20:52;99332.38;;;0.45;74.32
75409;BME280;63979;55.644;37.734;2023-02-28T17:25:53;99329.31;;;0.57;74.56
75409;BME280;63979;55.644;37.734;2023-02-28T17:30:55;99348.75;;;0.51;75.51
75409;BME280;63979;55.644;37.734;2023-02-28T17:35:57;99282.66;;;0.15;75.34
75409;BME280;63979;55.644;37.734;2023-02-28T17:40:58;99344.38;;;0.52;74.55
75409;BME280;63979;55.644;37.734;2023-02-28T17:45:59;99337.13;;;0.34;72.87
75409;BME280;63979;55.644;37.734;2023-02-28T17:51:02;99326.69;;;0.32;72.07
75409;BME280;63979;55.644;37.734;2023-02-28T17:56:03;99355.03;;;0.47;71.49
75409;BME280;63979;55.644;37.734;2023-02-28T18:01:04;99350.59;;;0.49;70.82
75409;BME280;63979;55.644;37.734;2023-02-28T18:06:06;99316.41;;;0.26;70.41
75409;BME280;63979;55.644;37.734;2023-02-28T18:11:07;99390.59;;;0.56;70.14
75409;BME280;63979;55.644;37.734;2023-02-28T18:16:18;99344.00;;;0.13;68.76
75409;BME280;63979;55.644;37.734;2023-02-28T18:21:19;99406.91;;;0.41;68.79
75409;BME280;63979;55.644;37.734;2023-02-28T18:26:20;99414.88;;;0.11;68.83
75409;BME280;63979;55.644;37.734;2023-02-28T18:31:21;99406.59;;;-0.29;70.99
75409;BME280;63979;55.644;37.734;2023-02-28T18:36:22;99412.19;;;-0.42;70.09
75409;BME280;63979;55.644;37.734;2023-02-28T18:41:23;99436.81;;;-0.47;69.19
75409;BME280;63979;55.644;37.734;2023-02-28T18:46:24;99439.44;;;-0.47;67.08
75409;BME280;63979;55.644;37.734;2023-02-28T18:51:26;99418.53;;;-0.49;65.27
75409;BME280;63979;55.644;37.734;2023-02-28T18:56:27;99418.31;;;-0.43;65.11
75409;BME280;63979;55.644;37.734;2023-02-28T19:01:29;99410.75;;;-0.52;62.16
75409;BME280;63979;55.644;37.734;2023-02-28T19:06:33;99420.38;;;-0.52;60.89
75409;BME280;63979;55.644;37.734;2023-02-28T19:11:34;99410.84;;;-0.55;60.87
75409;BME280;63979;55.644;37.734;2023-02-28T19:16:35;99408.22;;;-0.55;59.25
75409;BME280;63979;55.644;37.734;2023-02-28T19:21:36;99410.91;;;-0.56;59.38
75409;BME280;63979;55.644;37.734;2023-02-28T19:26:38;99409.09;;;-0.54;59.80
75409;BME280;63979;55.644;37.734;2023-02-28T19:31:38;99415.09;;;-0.51;59.75
75409;BME280;63979;55.644;37.734;2023-02-28T19:36:39;99412.53;;;-0.52;59.48
75409;BME280;63979;55.644;37.734;2023-02-28T19:41:40;99368.59;;;-0.74;60.21
75409;BME280;63979;55.644;37.734;2023-02-28T19:46:41;99381.53;;;-0.68;59.15
75409;BME280;63979;55.644;37.734;2023-02-28T19:51:43;99404.75;;;-0.55;57.47
75409;BME280;63979;55.644;37.734;2023-02-28T19:56:44;99367.75;;;-0.74;56.67
75409;BME280;63979;55.644;37.734;2023-02-28T20:01:45;99398.56;;;-0.53;56.54
75409;BME280;63979;55.644;37.734;2023-02-28T20:06:47;99390.94;;;-0.60;57.19
75409;BME280;63979;55.644;37.734;2023-02-28T20:11:47;99401.19;;;-0.53;58.06
75409;BME280;63979;55.644;37.734;2023-02-28T20:16:50;99389.41;;;-0.68;57.77
75409;BME280;63979;55.644;37.734;2023-02-28T20:21:51;99399.47;;;-0.83;55.92
75409;BME280;63979;55.644;37.734;2023-02-28T20:26:52;99339.41;;;-1.19;54.24
75409;BME280;63979;55.644;37.734;2023-02-28T20:32:01;99386.34;;;-1.13;52.37
75409;BME280;63979;55.644;37.734;2023-02-28T20:37:02;99393.38;;;-1.15;52.66
75409;BME280;63979;55.644;37.734;2023-02-28T20:42:03;99380.88;;;-1.35;54.03
75409;BME280;63979;55.644;37.734;2023-02-28T20:47:04;99385.91;;;-1.60;51.42
75409;BME280;63979;55.644;37.734;2023-02-28T20:52:05;99395.72;;;-1.68;50.96
75409;BME280;63979;55.644;37.734;2023-02-28T20:57:06;99350.59;;;-2.11;50.73
75409;BME280;63979;55.644;37.734;2023-02-28T21:02:10;99405.09;;;-1.95;50.74
75409;BME280;63979;55.644;37.734;2023-02-28T21:07:14;99396.88;;;-2.15;50.37
75409;BME280;63979;55.644;37.734;2023-02-28T21:12:16;99401.31;;;-2.18;49.68
75409;BME280;63979;55.644;37.734;2023-02-28T21:17:18;99413.78;;;-2.30;50.32
75409;BME280;63979;55.644;37.734;2023-02-28T21:22:19;99419.28;;;-2.40;49.69
75409;BME280;63979;55.644;37.734;2023-02-28T21:27:20;99393.56;;;-2.59;50.29
75409;BME280;63979;55.644;37.734;2023-02-28T21:32:20;99428.09;;;-2.46;50.08
75409;BME280;63979;55.644;37.734;2023-02-28T21:37:22;99415.31;;;-2.58;50.67
75409;BME280;63979;55.644;37.734;2023-02-28T21:42:23;99421.50;;;-2.62;50.70
75409;BME280;63979;55.644;37.734;2023-02-28T21:47:24;99384.69;;;-2.92;50.42
75409;BME280;63979;55.644;37.734;2023-02-28T21:52:25;99437.34;;;-2.70;50.31
75409;BME280;63979;55.644;37.734;2023-02-28T21:57:26;99438.56;;;-2.88;49.72
75409;BME280;63979;55.644;37.734;2023-02-28T22:02:27;99416.03;;;-2.92;48.48
75409;BME280;63979;55.644;37.734;2023-02-28T22:07:28;99430.81;;;-2.91;49.70
75409;BME280;63979;55.644;37.734;2023-02-28T22:12:30;99427.50;;;-2.99;49.98
75409;BME280;63979;55.644;37.734;2023-02-28T22:17:32;99432.88;;;-3.06;50.20
75409;BME280;63979;55.644;37.734;2023-02-28T22:22:33;99435.47;;;-3.05;50.26
75409;BME280;63979;55.644;37.734;2023-02-28T22:27:34;99443.41;;;-3.11;50.20
75409;BME280;63979;55.644;37.734;2023-02-28T22:32:35;99431.25;;;-3.14;50.25
75409;BME280;63979;55.644;37.734;2023-02-28T22:37:37;99439.19;;;-3.18;49.73
75409;BME280;63979;55.644;37.734;2023-02-28T22:42:38;99426.19;;;-3.21;50.71
75409;BME280;63979;55.644;37.734;2023-02-28T22:47:39;99419.41;;;-3.30;50.69
75409;BME280;63979;55.644;37.734;2023-02-28T22:52:40;99416.13;;;-3.39;50.53
75409;BME280;63979;55.644;37.734;2023-02-28T22:57:41;99441.09;;;-3.28;50.74
75409;BME280;63979;55.644;37.734;2023-02-28T23:02:44;99427.31;;;-3.34;50.82
75409;BME280;63979;55.644;37.734;2023-02-28T23:07:45;99435.22;;;-3.37;50.68
75409;BME280;63979;55.644;37.734;2023-02-28T23:12:46;99446.53;;;-3.38;51.30
75409;BME280;63979;55.644;37.734;2023-02-28T23:17:53;99420.78;;;-3.57;51.61
75409;BME280;63979;55.644;37.734;2023-02-28T23:22:54;99424.28;;;-3.58;51.58
75409;BME280;63979;55.644;37.734;2023-02-28T23:27:55;99437.19;;;-3.52;51.65
75409;BME280;63979;55.644;37.734;2023-02-28T23:32:56;99438.09;;;-3.53;52.27
75409;BME280;63979;55.644;37.734;2023-02-28T23:37:56;99431.25;;;-3.60;52.19
75409;BME280;63979;55.644;37.734;2023-02-28T23:42:58;99359.06;;;-4.04;51.92
75409;BME280;63979;55.644;37.734;2023-02-28T23:47:59;99422.88;;;-3.75;51.68
75409;BME280;63979;55.644;37.734;2023-02-28T23:53:00;99427.94;;;-3.68;51.71
75409;BME280;63979;55.644;37.734;2023-02-28T23:58:01;99416.88;;;-3.82;51.65
